CCR8 weather

Public forecast

Using degrees Celsius for public forecast. Weather courtesy of forecast.io.

Closest aviation weather report (METAR) to Conne River Seaplane Base

Closest report is Gander International Airport, 72.9 nm (134.9 km) NNE. Retrieved 2020/08/15 03:00 UTC (56 minutes ago):

CYQX 150300Z 33005KT 20SM FEW019 08/07 A3021 RMK SC2 SLP236

Closest aviation forecast (TAF) to Conne River Seaplane Base

Closest forecast is Gander International Airport, 72.9 nm (134.9 km) NNE. Retrieved 2020-08-15 00:39 UTC (3 hours ago):

TAF CYQX 142338Z 1500/1524 01014KT P6SM FEW008 OVC020 TEMPO 1500/1502 5SM -SHRA BR BKN020 OVC030 PROB30 1500/1502 BKN008 FM150200 01010KT P6SM FEW002 PROB30 1505/1509 1/2SM FG VV002 FM151200 01010KT P6SM FEW030 BECMG 1522/1524 18005KT RMK NXT FCST BY 150600Z